Gilman, Vermont
Current Conditions -  °F | °C
As of 3:52 AM on Wednesday 22 Oct 2014 (Local Time) from KHIE Reporting Station
Light Rain Light Rain  
Wind Chill: 42°   Ceiling: 2900
Heat Index: 47°   Visibility: 10mi
Dew Point: 42°   Wind: 10mph
Humidity: 83%   Direction: 70°ENE
Pressure: 30.1"   Gusts: NA
Location:  44.41°N, 71.72°W
Report Text: KHIE 220752Z AUTO 07009KT 10SM -RA SCT019 BKN029 OVC060 08/06 A3010 RMK AO2 RAB38 SLP199 P0001 T00830056
Loading
Personal Weather Stations






























Interactive Weather Map
Tropical Storm Tracking
New forecast layout! Learn more

10-Day Weather Forecast

Advertisements
Track Severe Weather on mobile